Time;durP1;ratioP1;P1;durP2;ratioP2;P2;SDS_P1;SDS_P2;PMS_P1;PMS_P2;Temp;Humidity;BMP_temperature;BMP_pressure;BME280_temperature;BME280_humidity;BME280_pressure;Samples;Min_cycle;Max_cycle;Signal;HPM_P1;HPM_P2
2023/06/30 00:00:53;;;;;;;11.25;10.05;;;;;;;17.29;100.00;100654.69;5076015;28;20079;-78
2023/06/30 00:03:20;;;;;;;9.85;8.93;;;;;;;17.13;100.00;100652.38;5076434;28;20431;-80
2023/06/30 00:05:48;;;;;;;10.27;9.20;;;;;;;17.14;100.00;100664.59;5076580;28;20139;-79
2023/06/30 00:08:15;;;;;;;8.77;7.93;;;;;;;17.20;100.00;100661.97;5076421;28;20189;-80
2023/06/30 00:10:42;;;;;;;11.27;8.60;;;;;;;17.15;100.00;100661.75;5075963;28;20136;-79
2023/06/30 00:13:09;;;;;;;10.18;8.63;;;;;;;17.15;100.00;100658.28;5075843;28;20123;-80
2023/06/30 00:15:35;;;;;;;9.52;8.30;;;;;;;17.17;100.00;100669.47;5076085;28;20145;-80
2023/06/30 00:18:03;;;;;;;7.10;6.40;;;;;;;17.02;100.00;100668.81;5076545;28;20056;-80
2023/06/30 00:20:30;;;;;;;5.78;5.18;;;;;;;16.90;100.00;100664.09;5076261;28;20058;-80
2023/06/30 00:22:57;;;;;;;6.60;6.00;;;;;;;16.94;100.00;100672.47;5075344;28;20083;-80
2023/06/30 00:25:23;;;;;;;6.68;5.53;;;;;;;16.76;100.00;100672.97;5074825;28;20055;-80
2023/06/30 00:27:50;;;;;;;7.50;4.95;;;;;;;16.69;100.00;100668.66;5076055;28;20112;-80
2023/06/30 00:30:16;;;;;;;5.68;5.10;;;;;;;16.59;100.00;100663.69;5078021;28;20140;-80
2023/06/30 00:32:43;;;;;;;5.00;4.50;;;;;;;16.60;100.00;100663.50;5075568;28;20124;-80
2023/06/30 00:35:11;;;;;;;6.30;4.00;;;;;;;16.51;100.00;100653.28;5076057;28;20048;-80
2023/06/30 00:37:37;;;;;;;4.28;3.75;;;;;;;16.48;100.00;100653.69;5075133;28;20076;-80
2023/06/30 00:40:05;;;;;;;5.35;3.92;;;;;;;16.53;100.00;100664.50;5075620;28;20052;-81
2023/06/30 00:42:32;;;;;;;4.40;3.47;;;;;;;16.52;100.00;100662.84;5075624;28;20106;-78
2023/06/30 00:44:59;;;;;;;5.75;3.65;;;;;;;16.40;100.00;100659.13;5078630;28;20072;-81
2023/06/30 00:47:26;;;;;;;3.70;3.03;;;;;;;16.27;100.00;100665.94;5079763;28;20053;-79
2023/06/30 00:49:53;;;;;;;5.97;3.15;;;;;;;16.31;100.00;100660.25;5075663;28;20120;-80
2023/06/30 00:52:21;;;;;;;4.20;3.40;;;;;;;16.23;100.00;100669.97;5081947;28;20072;-79
2023/06/30 00:54:48;;;;;;;5.03;3.38;;;;;;;16.16;100.00;100663.00;5082796;28;20127;-80
2023/06/30 00:57:14;;;;;;;3.75;3.25;;;;;;;16.16;100.00;100666.44;5081938;28;20091;-79
2023/06/30 00:59:41;;;;;;;5.88;3.05;;;;;;;16.10;100.00;100672.47;5082559;28;20044;-81
2023/06/30 01:02:13;;;;;;;5.28;3.63;;;;;;;16.17;100.00;100668.06;5082130;28;20115;-81
2023/06/30 01:04:48;;;;;;;6.63;3.38;;;;;;;16.08;100.00;100671.84;5083129;28;20044;-81
2023/06/30 01:07:22;;;;;;;5.45;3.50;;;;;;;16.05;100.00;100672.28;5082873;28;20499;-79
2023/06/30 01:10:04;;;;;;;4.63;3.40;;;;;;;15.92;100.00;100656.31;5083097;28;20108;-80
2023/06/30 01:12:31;;;;;;;4.32;3.42;;;;;;;15.98;100.00;100660.84;5082623;28;20052;-80
2023/06/30 01:14:58;;;;;;;5.30;3.60;;;;;;;15.88;100.00;100665.63;5082283;28;20055;-80
2023/06/30 01:17:26;;;;;;;4.75;3.22;;;;;;;15.85;100.00;100668.63;5081244;28;20112;-79
2023/06/30 01:19:55;;;;;;;4.85;3.72;;;;;;;15.87;100.00;100663.97;5074452;28;20596;-80
2023/06/30 01:22:26;;;;;;;5.82;3.83;;;;;;;15.81;100.00;100660.28;5079424;28;20112;-80
2023/06/30 01:24:59;;;;;;;5.68;4.47;;;;;;;15.84;100.00;100664.34;5071417;28;20052;-80
2023/06/30 01:27:26;;;;;;;5.50;3.88;;;;;;;15.88;100.00;100665.63;5078684;28;20111;-81
2023/06/30 01:29:54;;;;;;;8.70;4.38;;;;;;;15.87;100.00;100666.63;5071152;28;20121;-81
2023/06/30 01:32:21;;;;;;;6.88;4.55;;;;;;;15.91;100.00;100668.69;5077775;28;20131;-82
2023/06/30 01:34:48;;;;;;;6.10;4.78;;;;;;;15.81;100.00;100664.72;5079784;28;20040;-81
2023/06/30 01:37:15;;;;;;;6.72;4.65;;;;;;;15.87;100.00;100669.25;5079755;28;20123;-79
2023/06/30 01:39:42;;;;;;;6.60;5.53;;;;;;;15.85;100.00;100668.63;5076894;28;20140;-81
2023/06/30 01:42:10;;;;;;;8.35;5.70;;;;;;;15.81;100.00;100664.72;5076474;28;20060;-81
2023/06/30 01:44:38;;;;;;;8.00;5.45;;;;;;;15.97;100.00;100651.28;5074952;28;20058;-80
2023/06/30 01:47:06;;;;;;;9.60;5.65;;;;;;;15.94;100.00;100664.84;5076433;28;20045;-79
2023/06/30 01:49:34;;;;;;;12.20;6.55;;;;;;;15.97;100.00;100653.09;5077174;28;20113;-80
2023/06/30 01:52:01;;;;;;;8.02;6.00;;;;;;;16.06;100.00;100659.88;5075816;28;20049;-80
2023/06/30 01:54:27;;;;;;;10.18;7.03;;;;;;;15.99;100.00;100656.38;5079832;28;20076;-79
2023/06/30 01:56:54;;;;;;;10.30;7.50;;;;;;;15.87;100.00;100661.34;5080911;28;20076;-79
2023/06/30 01:59:22;;;;;;;9.27;7.50;;;;;;;15.84;100.00;100669.63;5079534;28;20052;-80
2023/06/30 02:01:48;;;;;;;11.00;7.95;;;;;;;15.80;100.00;100678.94;5079488;28;20128;-81
2023/06/30 02:04:16;;;;;;;9.10;7.50;;;;;;;15.79;100.00;100680.75;5080675;28;20076;-80
2023/06/30 02:06:43;;;;;;;10.25;8.65;;;;;;;15.74;100.00;100685.78;5080678;28;20131;-79
2023/06/30 02:09:11;;;;;;;9.27;8.27;;;;;;;15.78;100.00;100689.66;5080087;28;20083;-80
2023/06/30 02:11:38;;;;;;;9.82;7.70;;;;;;;15.84;100.00;100691.56;5081333;28;20056;-80
2023/06/30 02:14:05;;;;;;;8.88;7.82;;;;;;;15.85;100.00;100693.19;5081519;28;20068;-79
2023/06/30 02:16:33;;;;;;;8.80;7.40;;;;;;;15.87;100.00;100696.47;5081442;28;20132;-80
2023/06/30 02:18:59;;;;;;;9.57;7.13;;;;;;;15.86;100.00;100694.81;5075144;28;20143;-78
2023/06/30 02:21:26;;;;;;;9.75;7.47;;;;;;;15.85;100.00;100692.38;5073274;28;20049;-78
2023/06/30 02:23:53;;;;;;;15.00;7.53;;;;;;;15.79;100.00;100690.50;5074120;28;20128;-79
2023/06/30 02:26:20;;;;;;;9.63;7.68;;;;;;;15.73;100.00;100688.59;5074427;28;20167;-80
2023/06/30 02:28:46;;;;;;;16.35;9.02;;;;;;;15.77;100.00;100703.06;5072738;28;20060;-80
2023/06/30 02:31:13;;;;;;;11.32;7.60;;;;;;;15.82;100.00;100700.66;5073278;28;20075;-78
2023/06/30 02:33:41;;;;;;;11.10;8.20;;;;;;;15.80;100.00;100695.56;5073919;28;20427;-81
2023/06/30 02:36:07;;;;;;;11.60;8.65;;;;;;;15.82;100.00;100709.41;5073625;28;20091;-81
2023/06/30 02:38:34;;;;;;;12.43;8.30;;;;;;;15.74;100.00;100713.97;5074409;28;20080;-81
2023/06/30 02:41:00;;;;;;;12.75;9.35;;;;;;;15.72;100.00;100718.63;5075514;28;20470;-80
2023/06/30 02:43:28;;;;;;;12.32;9.77;;;;;;;15.76;100.00;100725.16;5077349;28;20095;-78
2023/06/30 02:45:54;;;;;;;14.25;10.25;;;;;;;15.71;100.00;100714.34;5076992;28;20101;-80
2023/06/30 02:48:21;;;;;;;13.32;10.45;;;;;;;15.75;100.00;100713.78;5077738;28;20044;-78
2023/06/30 02:50:49;;;;;;;14.65;10.75;;;;;;;15.68;100.00;100717.34;5082193;28;20112;-80
2023/06/30 02:53:15;;;;;;;20.17;11.45;;;;;;;15.63;100.00;100717.09;5083197;28;20151;-79
2023/06/30 02:55:48;;;;;;;13.50;11.07;;;;;;;15.53;100.00;100726.13;5085648;28;20037;-80
2023/06/30 02:58:14;;;;;;;16.35;12.00;;;;;;;15.57;100.00;100722.16;5082636;28;20044;-80
2023/06/30 03:00:41;;;;;;;13.05;10.90;;;;;;;15.60;100.00;100718.28;5081700;28;20148;-80
2023/06/30 03:03:08;;;;;;;21.35;11.25;;;;;;;15.64;100.00;100703.72;5081796;28;20075;-79
2023/06/30 03:05:34;;;;;;;15.15;10.88;;;;;;;15.64;100.00;100697.63;5081294;28;20037;-78
2023/06/30 03:08:03;;;;;;;17.75;12.38;;;;;;;15.60;100.00;100711.19;5082207;28;20052;-79
2023/06/30 03:10:30;;;;;;;14.85;10.75;;;;;;;15.60;100.00;100705.91;5079946;28;20051;-80
2023/06/30 03:12:57;;;;;;;18.52;11.73;;;;;;;15.58;100.00;100707.94;5082740;28;20143;-80
2023/06/30 03:15:23;;;;;;;15.32;11.18;;;;;;;15.60;100.00;100715.66;5081416;28;20048;-80
2023/06/30 03:17:50;;;;;;;16.33;11.60;;;;;;;15.54;100.00;100714.56;5084351;28;20136;-81
2023/06/30 03:20:17;;;;;;;16.23;12.00;;;;;;;15.59;100.00;100722.78;5084019;28;20076;-80
2023/06/30 03:22:44;;;;;;;22.02;10.68;;;;;;;15.58;100.00;100717.69;5082292;28;20495;-79
2023/06/30 03:25:12;;;;;;;18.88;11.38;;;;;;;15.55;100.00;100718.03;5076571;28;20499;-79
2023/06/30 03:27:39;;;;;;;19.35;11.80;;;;;;;15.56;100.00;100720.50;5075836;28;20499;-78
2023/06/30 03:30:07;;;;;;;21.60;12.20;;;;;;;15.63;100.00;100725.00;5076980;28;20460;-79
2023/06/30 03:32:34;;;;;;;20.15;11.70;;;;;;;15.63;100.00;100727.66;5074583;28;20103;-81
2023/06/30 03:35:03;;;;;;;17.65;12.02;;;;;;;15.56;100.00;100719.66;5077029;28;20584;-80
2023/06/30 03:37:29;;;;;;;21.02;13.38;;;;;;;15.60;100.00;100711.19;5076419;28;20045;-83
2023/06/30 03:39:56;;;;;;;24.88;13.25;;;;;;;15.53;100.00;100699.75;5076835;28;20115;-80
2023/06/30 03:42:24;;;;;;;27.85;14.38;;;;;;;15.56;100.00;100709.97;5082637;28;20458;-80
2023/06/30 03:44:51;;;;;;;19.13;14.25;;;;;;;15.58;100.00;100702.69;5085025;28;20131;-80
2023/06/30 03:47:17;;;;;;;22.75;13.40;;;;;;;15.52;100.00;100706.03;5080431;28;20427;-80
2023/06/30 03:49:44;;;;;;;29.90;13.85;;;;;;;15.55;100.00;100695.09;5080404;28;20087;-80
2023/06/30 03:52:10;;;;;;;23.25;14.10;;;;;;;15.60;100.00;100692.72;5078450;28;20128;-81
2023/06/30 03:54:37;;;;;;;28.33;13.52;;;;;;;15.62;100.00;100704.91;5076990;28;20579;-79
2023/06/30 03:57:04;;;;;;;30.25;14.23;;;;;;;15.62;100.00;100716.28;5068339;28;20135;-79
2023/06/30 03:59:32;;;;;;;22.75;14.15;;;;;;;15.63;100.00;100717.91;5075929;28;20075;-80
2023/06/30 04:01:59;;;;;;;22.52;14.10;;;;;;;15.60;100.00;100724.38;5075342;28;20108;-80
2023/06/30 04:04:25;;;;;;;24.55;14.52;;;;;;;15.51;100.00;100707.03;5075995;28;20052;-80
2023/06/30 04:06:52;;;;;;;20.30;13.43;;;;;;;15.49;100.00;100714.31;5075629;28;20531;-79
2023/06/30 04:09:18;;;;;;;25.38;14.88;;;;;;;15.54;100.00;100714.56;5075340;28;20048;-79
2023/06/30 04:11:49;;;;;;;20.42;14.40;;;;;;;15.58;100.00;100713.22;5075370;28;20096;-80
2023/06/30 04:14:15;;;;;;;20.80;14.70;;;;;;;15.58;100.00;100725.59;5075852;28;20055;-80
2023/06/30 04:16:43;;;;;;;26.85;15.43;;;;;;;15.53;100.00;100723.50;5075350;28;20451;-80
2023/06/30 04:19:10;;;;;;;26.83;15.10;;;;;;;15.54;100.00;100717.22;5075476;28;20113;-80
2023/06/30 04:21:37;;;;;;;26.95;15.40;;;;;;;15.50;100.00;100717.75;5075562;28;20044;-80
2023/06/30 04:24:03;;;;;;;22.40;13.70;;;;;;;15.52;100.00;100710.47;5075605;28;20116;-80
2023/06/30 04:26:30;;;;;;;25.58;13.95;;;;;;;15.58;100.00;100723.78;5075887;28;20040;-80
2023/06/30 04:28:57;;;;;;;25.50;15.05;;;;;;;15.57;100.00;100726.59;5075659;28;20134;-78
2023/06/30 04:31:26;;;;;;;22.50;13.85;;;;;;;15.55;100.00;100718.03;5067902;28;20063;-79
2023/06/30 04:33:54;;;;;;;24.58;13.77;;;;;;;15.57;100.00;100716.06;5072663;28;20048;-79
2023/06/30 04:36:21;;;;;;;25.30;14.55;;;;;;;15.56;100.00;100720.50;5073973;28;20045;-79
2023/06/30 04:38:48;;;;;;;29.92;14.60;;;;;;;15.54;100.00;100717.22;5074449;28;20438;-79
2023/06/30 04:41:14;;;;;;;24.48;13.73;;;;;;;15.52;100.00;100711.31;5075484;28;20052;-82
2023/06/30 04:43:43;;;;;;;24.67;13.60;;;;;;;15.53;100.00;100718.22;5074964;28;20046;-79
2023/06/30 04:46:09;;;;;;;25.13;14.05;;;;;;;15.62;100.00;100726.00;5068438;28;20048;-78
2023/06/30 04:48:36;;;;;;;30.42;14.25;;;;;;;15.58;100.00;100715.06;5078082;28;20072;-79
2023/06/30 04:51:04;;;;;;;29.10;13.68;;;;;;;15.60;100.00;100719.09;5075702;28;20052;-79
2023/06/30 04:53:31;;;;;;;24.27;13.13;;;;;;;15.66;100.00;100722.81;5071558;28;20040;-80
2023/06/30 04:55:58;;;;;;;26.63;13.57;;;;;;;15.75;100.00;100719.06;5076252;28;20045;-80
2023/06/30 04:58:25;;;;;;;23.98;13.50;;;;;;;15.85;100.00;100734.59;5075219;28;20112;-81
2023/06/30 05:00:51;;;;;;;18.77;12.75;;;;;;;15.83;100.00;100734.78;5075774;28;20054;-79
2023/06/30 05:03:19;;;;;;;22.65;13.32;;;;;;;15.81;100.00;100733.34;5075034;28;20079;-80
2023/06/30 05:05:45;;;;;;;28.08;13.07;;;;;;;15.88;100.00;100735.03;5078528;28;20037;-79
2023/06/30 05:08:14;;;;;;;20.40;12.68;;;;;;;15.91;100.00;100725.94;5077340;28;20044;-80
2023/06/30 05:10:41;;;;;;;19.55;12.88;;;;;;;15.92;100.00;100719.66;5074901;28;20036;-80
2023/06/30 05:13:08;;;;;;;23.52;12.80;;;;;;;16.11;100.00;100734.84;5070694;28;20036;-81
2023/06/30 05:15:34;;;;;;;27.48;12.65;;;;;;;16.10;100.00;100722.63;5074887;28;20062;-80
2023/06/30 05:18:01;;;;;;;16.60;11.23;;;;;;;16.27;100.00;100725.84;5074605;28;20075;-80
2023/06/30 05:20:27;;;;;;;21.50;11.40;;;;;;;16.44;100.00;100729.03;5074821;28;20067;-80
2023/06/30 05:22:54;;;;;;;20.75;10.75;;;;;;;16.71;100.00;100725.56;5071212;28;20136;-81
2023/06/30 05:25:22;;;;;;;21.75;10.38;;;;;;;16.73;100.00;100720.91;5074197;28;20048;-79
2023/06/30 05:27:48;;;;;;;16.88;9.30;;;;;;;16.77;100.00;100721.34;5074378;28;20072;-80
2023/06/30 05:30:15;;;;;;;16.60;9.65;;;;;;;16.79;100.00;100733.34;5074325;28;20054;-81
2023/06/30 05:32:42;;;;;;;20.73;9.60;;;;;;;16.85;100.00;100737.88;5071891;28;20098;-80
2023/06/30 05:35:09;;;;;;;24.05;9.60;;;;;;;17.27;100.00;100740.50;5074475;28;20072;-80
2023/06/30 05:37:35;;;;;;;18.90;8.38;;;;;;;17.48;99.46;100753.63;5074010;28;20040;-80
2023/06/30 05:40:03;;;;;;;20.83;9.63;;;;;;;17.41;97.19;100747.50;5074777;28;20049;-80
2023/06/30 05:42:32;;;;;;;16.65;9.20;;;;;;;17.60;96.74;100736.16;5074651;28;20044;-80
2023/06/30 05:44:59;;;;;;;22.00;9.43;;;;;;;18.04;95.67;100732.19;5073967;28;20131;-80
2023/06/30 05:47:25;;;;;;;22.52;8.75;;;;;;;18.55;93.89;100711.19;5074413;28;20582;-81
2023/06/30 05:49:52;;;;;;;21.60;9.23;;;;;;;18.52;92.92;100709.78;5071884;28;20135;-81
2023/06/30 05:52:21;;;;;;;19.98;8.82;;;;;;;18.05;93.43;100718.75;5074807;28;20135;-80
2023/06/30 05:54:47;;;;;;;16.83;8.23;;;;;;;17.41;94.57;100719.22;5074870;28;20067;-80
2023/06/30 05:57:14;;;;;;;15.98;8.25;;;;;;;17.08;96.41;100719.06;5074657;28;20048;-81
2023/06/30 05:59:42;;;;;;;16.00;8.27;;;;;;;16.75;97.68;100729.47;5076099;28;20131;-81
2023/06/30 06:02:08;;;;;;;22.83;8.60;;;;;;;16.44;98.73;100719.28;5080878;28;20491;-79
2023/06/30 06:04:36;;;;;;;22.45;9.63;;;;;;;16.51;99.47;100717.50;5081447;28;20132;-80
2023/06/30 06:07:05;;;;;;;17.65;9.32;;;;;;;16.63;99.38;100728.34;5075930;28;20113;-81
2023/06/30 06:09:31;;;;;;;13.80;8.80;;;;;;;16.73;99.46;100734.13;5075589;28;20083;-80
2023/06/30 06:11:58;;;;;;;15.10;8.40;;;;;;;16.90;98.91;100732.81;5075838;28;20127;-81
2023/06/30 06:14:25;;;;;;;20.60;7.97;;;;;;;17.26;97.44;100734.41;5074493;28;20519;-79
2023/06/30 06:16:52;;;;;;;17.27;7.80;;;;;;;17.91;95.81;100743.59;5074960;28;20071;-80
2023/06/30 06:19:20;;;;;;;19.05;8.77;;;;;;;18.90;92.07;100739.09;5075122;28;20049;-80
2023/06/30 06:21:47;;;;;;;18.60;7.75;;;;;;;20.13;86.50;100731.78;5078649;28;20052;-82
2023/06/30 06:24:16;;;;;;;18.92;7.30;;;;;;;20.79;81.86;100711.78;5078508;28;20153;-80
2023/06/30 06:26:43;;;;;;;17.35;8.13;;;;;;;20.26;81.60;100709.59;5077955;28;20067;-79
2023/06/30 06:29:09;;;;;;;15.63;7.32;;;;;;;19.98;82.70;100715.31;5077850;28;20483;-79
2023/06/30 06:31:36;;;;;;;15.10;7.30;;;;;;;19.51;83.71;100716.63;5081777;28;20459;-78
2023/06/30 06:34:04;;;;;;;17.10;7.82;;;;;;;19.19;84.75;100718.41;5077984;28;20139;-79
2023/06/30 06:36:30;;;;;;;15.27;7.45;;;;;;;19.21;84.32;100719.00;5079389;28;20227;-79
2023/06/30 06:38:57;;;;;;;11.70;6.78;;;;;;;19.95;83.20;100720.25;5078483;28;20049;-80
2023/06/30 06:41:24;;;;;;;13.05;6.63;;;;;;;21.11;78.58;100715.91;5078566;28;20051;-80
2023/06/30 06:43:50;;;;;;;9.52;6.22;;;;;;;22.48;75.29;100716.78;5078558;28;20060;-79
2023/06/30 06:46:17;;;;;;;13.68;6.35;;;;;;;22.91;70.25;100709.47;5083563;28;20477;-81
2023/06/30 06:48:43;;;;;;;10.90;5.50;;;;;;;23.25;68.56;100713.06;5074887;28;20123;-80
2023/06/30 06:51:12;;;;;;;11.57;5.63;;;;;;;23.09;69.53;100723.47;5078837;28;20104;-82
2023/06/30 06:53:38;;;;;;;16.38;5.30;;;;;;;22.67;69.60;100716.69;5080577;28;20055;-81
2023/06/30 06:56:06;;;;;;;8.88;4.93;;;;;;;22.23;70.25;100726.03;5079055;28;20111;-81
2023/06/30 06:58:36;;;;;;;9.90;4.55;;;;;;;22.27;67.95;100708.53;5077969;28;20067;-81
2023/06/30 07:01:02;;;;;;;9.38;4.35;;;;;;;23.42;68.50;100719.28;5078212;28;20049;-81
2023/06/30 07:03:29;;;;;;;10.68;4.43;;;;;;;23.20;65.99;100699.63;5078880;28;20211;-83
2023/06/30 07:05:56;;;;;;;10.85;4.55;;;;;;;23.29;65.05;100704.34;5076805;28;20364;-81
2023/06/30 07:08:26;;;;;;;13.52;4.88;;;;;;;23.45;63.60;100703.59;5078426;28;20128;-82
2023/06/30 07:10:52;;;;;;;9.88;4.22;;;;;;;23.26;63.79;100707.50;5075723;28;20139;-82
2023/06/30 07:13:20;;;;;;;9.80;4.10;;;;;;;22.71;64.63;100701.78;5077412;28;20068;-83
2023/06/30 07:15:48;;;;;;;8.55;4.22;;;;;;;22.96;64.36;100707.72;5076830;28;20156;-84
2023/06/30 07:18:17;;;;;;;10.77;3.80;;;;;;;23.71;64.28;100720.91;5078583;28;20083;-83
2023/06/30 07:20:47;;;;;;;12.15;4.80;;;;;;;23.87;62.98;100713.97;5076018;28;20097;-80
2023/06/30 07:23:14;;;;;;;9.90;3.90;;;;;;;24.14;61.02;100714.16;5074632;28;20053;-80
2023/06/30 07:25:43;;;;;;;6.57;3.55;;;;;;;24.38;61.19;100709.47;5077659;28;20045;-83
2023/06/30 07:28:10;;;;;;;10.43;4.60;;;;;;;24.21;61.06;100722.00;5081278;28;20131;-82
2023/06/30 07:30:36;;;;;;;9.25;4.50;;;;;;;24.52;60.18;100731.34;5078909;28;20045;-81
2023/06/30 07:33:04;;;;;;;8.88;4.68;;;;;;;24.33;61.40;100730.78;5074037;28;20134;-81
2023/06/30 07:35:30;;;;;;;9.25;4.32;;;;;;;24.78;60.97;100723.41;5081992;28;20099;-82
2023/06/30 07:37:57;;;;;;;7.07;4.40;;;;;;;24.61;60.02;100727.97;5078116;28;20049;-81
2023/06/30 07:40:23;;;;;;;9.77;4.13;;;;;;;24.71;59.58;100720.09;5079286;28;20124;-83
2023/06/30 07:42:53;;;;;;;7.40;3.95;;;;;;;24.52;59.56;100721.47;5077554;28;20135;-81
2023/06/30 07:45:19;;;;;;;8.07;4.05;;;;;;;24.59;58.27;100719.38;5077033;28;20053;-82
2023/06/30 07:47:47;;;;;;;8.93;4.63;;;;;;;24.10;59.64;100723.72;5076824;28;20157;-81
2023/06/30 07:50:15;;;;;;;13.13;5.03;;;;;;;23.83;57.92;100710.97;5077278;28;20114;-80
2023/06/30 07:52:43;;;;;;;14.80;4.88;;;;;;;24.07;59.43;100718.88;5078099;23;20048;-79
2023/06/30 07:55:12;;;;;;;8.90;4.40;;;;;;;24.34;59.83;100717.19;5052281;28;20045;-78
2023/06/30 07:57:39;;;;;;;10.50;4.63;;;;;;;24.51;59.75;100717.16;5052460;28;20072;-78
2023/06/30 08:00:10;;;;;;;7.07;4.00;;;;;;;24.36;58.01;100711.59;5050645;28;20435;-79
2023/06/30 08:02:37;;;;;;;6.60;4.20;;;;;;;24.15;59.12;100721.91;5048459;28;20045;-78
2023/06/30 08:05:13;;;;;;;9.27;4.68;;;;;;;24.25;58.37;100717.78;5054563;28;20489;-77
2023/06/30 08:07:40;;;;;;;7.60;4.00;;;;;;;24.60;58.93;100721.00;5052374;28;20128;-76
2023/06/30 08:10:07;;;;;;;12.00;4.90;;;;;;;24.21;59.74;100719.34;5052064;28;20423;-78
2023/06/30 08:12:33;;;;;;;8.43;4.28;;;;;;;25.16;57.95;100732.47;5052616;28;20049;-78
2023/06/30 08:15:00;;;;;;;10.35;4.10;;;;;;;25.07;56.51;100720.56;5055068;28;20055;-77
2023/06/30 08:17:28;;;;;;;6.35;3.65;;;;;;;24.31;55.96;100709.63;5049141;28;20061;-77
2023/06/30 08:19:55;;;;;;;7.70;3.97;;;;;;;24.99;56.38;100716.50;5044129;28;20557;-77
2023/06/30 08:22:21;;;;;;;8.18;3.47;;;;;;;24.73;54.32;100712.63;5052097;28;20512;-77
2023/06/30 08:24:48;;;;;;;8.43;3.83;;;;;;;25.20;53.26;100706.00;5052635;28;20049;-77
2023/06/30 08:27:16;;;;;;;5.88;3.55;;;;;;;24.87;54.35;100707.75;5051598;28;20059;-78
2023/06/30 08:29:43;;;;;;;7.95;3.38;;;;;;;25.30;54.56;100717.66;5046801;28;20133;-79
2023/06/30 08:32:12;;;;;;;7.90;3.70;;;;;;;24.55;55.13;100710.28;5052855;28;20128;-79
2023/06/30 08:34:40;;;;;;;9.90;3.38;;;;;;;24.74;55.28;100706.22;5052495;28;20125;-78
2023/06/30 08:37:07;;;;;;;7.85;3.97;;;;;;;25.21;54.79;100705.75;5049729;28;20116;-79
2023/06/30 08:39:33;;;;;;;6.25;3.33;;;;;;;24.44;55.54;100706.63;5049825;28;20088;-79
2023/06/30 08:42:01;;;;;;;8.18;3.20;;;;;;;24.34;53.28;100694.97;5054951;28;20084;-78
2023/06/30 08:44:27;;;;;;;7.85;3.40;;;;;;;24.31;55.44;100706.97;5055532;28;20522;-79
2023/06/30 08:46:56;;;;;;;7.30;3.30;;;;;;;24.45;55.84;100704.75;5054938;28;20145;-78
2023/06/30 08:49:23;;;;;;;6.63;3.13;;;;;;;23.97;56.21;100708.81;5058660;28;20112;-80
2023/06/30 08:51:56;;;;;;;7.38;3.03;;;;;;;23.73;54.83;100688.63;5057244;28;20139;-79
2023/06/30 08:54:23;;;;;;;5.18;2.92;;;;;;;23.69;54.96;100684.81;5055303;28;20059;-78
2023/06/30 08:56:50;;;;;;;7.32;2.85;;;;;;;24.32;54.74;100673.00;5055964;28;20055;-79
2023/06/30 08:59:17;;;;;;;7.15;3.40;;;;;;;24.36;53.98;100684.84;5056044;28;20057;-78
2023/06/30 09:01:45;;;;;;;5.43;3.05;;;;;;;24.10;52.46;100676.38;5053756;28;20131;-79
2023/06/30 09:04:13;;;;;;;5.20;3.22;;;;;;;24.52;52.09;100678.66;5049442;28;20041;-77
2023/06/30 09:06:46;;;;;;;6.07;2.97;;;;;;;24.56;53.46;100687.81;5052341;28;20475;-79
2023/06/30 09:09:21;;;;;;;7.05;3.05;;;;;;;24.45;52.68;100683.38;5051498;28;20111;-78
2023/06/30 09:11:50;;;;;;;7.03;2.95;;;;;;;24.60;52.85;100680.88;5052670;28;20587;-78
2023/06/30 09:14:18;;;;;;;4.30;2.92;;;;;;;23.99;52.67;100674.63;5052389;28;20049;-78
2023/06/30 09:16:46;;;;;;;6.43;3.10;;;;;;;24.40;52.38;100664.56;5052320;28;20045;-79
2023/06/30 09:19:14;;;;;;;4.45;2.88;;;;;;;24.13;53.52;100677.78;5049787;28;20036;-80
2023/06/30 09:21:41;;;;;;;6.50;3.13;;;;;;;24.22;53.70;100683.53;5050495;28;20402;-77
2023/06/30 09:24:08;;;;;;;6.88;3.10;;;;;;;23.70;53.54;100671.22;5048657;28;20250;-79
2023/06/30 09:26:36;;;;;;;7.55;3.00;;;;;;;24.15;53.85;100668.44;5047371;28;20055;-78
2023/06/30 09:29:09;;;;;;;4.70;3.30;;;;;;;24.04;53.49;100661.34;5049337;28;20122;-78
2023/06/30 09:31:36;;;;;;;6.82;3.30;;;;;;;23.97;53.96;100657.22;5047308;28;20056;-78
2023/06/30 09:34:12;;;;;;;4.07;3.00;;;;;;;24.17;55.09;100661.00;5049604;28;20142;-78
2023/06/30 09:36:38;;;;;;;4.75;2.85;;;;;;;24.21;53.25;100650.63;5047835;28;20091;-78
2023/06/30 09:39:09;;;;;;;5.82;2.65;;;;;;;24.21;54.65;100661.31;5048623;28;20057;-77
2023/06/30 09:41:37;;;;;;;5.38;2.90;;;;;;;24.35;52.68;100640.44;5044505;28;20048;-79
2023/06/30 09:44:05;;;;;;;5.93;3.08;;;;;;;24.17;52.92;100650.31;5050720;28;20084;-79
2023/06/30 09:46:31;;;;;;;9.65;3.50;;;;;;;23.66;52.64;100648.69;5047403;28;20056;-78
2023/06/30 09:49:00;;;;;;;5.18;2.55;;;;;;;23.00;52.80;100638.66;5045665;28;20080;-78
2023/06/30 09:51:26;;;;;;;6.63;3.20;;;;;;;24.02;51.03;100631.38;5045089;28;20566;-78
2023/06/30 09:53:54;;;;;;;8.32;2.83;;;;;;;24.34;49.49;100631.59;5042266;28;20132;-78
2023/06/30 09:56:22;;;;;;;4.63;2.45;;;;;;;24.55;50.06;100642.56;5045090;28;20080;-79
2023/06/30 09:58:52;;;;;;;3.00;2.30;;;;;;;24.68;50.38;100637.66;5048701;28;20053;-77
2023/06/30 10:01:19;;;;;;;5.43;2.88;;;;;;;24.51;50.16;100641.44;5049861;28;20392;-78
2023/06/30 10:03:50;;;;;;;4.03;2.72;;;;;;;24.66;50.79;100642.44;5043156;28;20055;-78
2023/06/30 10:06:19;;;;;;;3.67;2.42;;;;;;;24.08;51.32;100643.78;5048785;28;20056;-79
2023/06/30 10:08:49;;;;;;;5.95;3.00;;;;;;;23.45;51.96;100647.53;5048971;28;20045;-77
2023/06/30 10:11:28;;;;;;;4.50;2.85;;;;;;;22.80;53.29;100645.22;5047401;28;20053;-79
2023/06/30 10:14:00;;;;;;;4.93;3.10;;;;;;;22.42;53.72;100642.25;5041117;28;20110;-77
2023/06/30 10:16:29;;;;;;;5.63;2.60;;;;;;;22.42;52.91;100634.25;5049827;28;20052;-77
2023/06/30 10:19:00;;;;;;;5.00;2.70;;;;;;;22.64;53.52;100637.94;5049876;28;20139;-78
2023/06/30 10:21:26;;;;;;;6.13;2.97;;;;;;;23.23;53.95;100656.44;5043945;28;20324;-79
2023/06/30 10:23:54;;;;;;;7.60;3.38;;;;;;;23.58;53.42;100640.28;5038076;28;20059;-79
2023/06/30 10:29:05;;;;;;;5.43;3.63;;;;;;;24.00;51.97;100628.16;5033769;28;20064;-78
2023/06/30 10:31:32;;;;;;;5.40;2.95;;;;;;;23.43;51.28;100612.25;5052026;28;20045;-80
2023/06/30 10:33:59;;;;;;;5.82;3.38;;;;;;;23.09;51.62;100602.56;5053150;28;20428;-79
2023/06/30 10:36:26;;;;;;;7.03;3.00;;;;;;;23.56;50.94;100605.00;5052412;28;20048;-79
2023/06/30 10:38:54;;;;;;;5.72;3.25;;;;;;;23.18;51.99;100620.59;5044350;28;20461;-79
2023/06/30 10:41:22;;;;;;;5.57;3.00;;;;;;;22.71;51.01;100597.78;5047084;28;20416;-77
2023/06/30 10:44:07;;;;;;;4.47;2.65;;;;;;;23.17;50.87;100594.94;5050093;28;20049;-77
2023/06/30 10:46:44;;;;;;;6.82;3.05;;;;;;;23.43;51.96;100611.44;5048908;28;20041;-78
2023/06/30 10:49:18;;;;;;;5.57;2.72;;;;;;;23.43;51.76;100600.75;5049542;28;20053;-78
2023/06/30 10:51:49;;;;;;;3.53;2.50;;;;;;;23.63;49.51;100581.63;5050907;28;20057;-81
2023/06/30 10:54:23;;;;;;;7.10;3.00;;;;;;;23.80;51.55;100593.09;5037648;28;20524;-77
2023/06/30 10:56:51;;;;;;;4.03;2.60;;;;;;;23.93;50.69;100597.28;5044653;28;20107;-79
2023/06/30 10:59:23;;;;;;;4.70;2.72;;;;;;;23.70;49.62;100577.69;5049065;28;20056;-77
2023/06/30 11:02:12;;;;;;;6.53;2.80;;;;;;;22.83;50.91;100590.59;5043559;28;20167;-77
2023/06/30 11:04:40;;;;;;;5.13;2.90;;;;;;;23.06;52.52;100590.50;5048088;28;20110;-77
2023/06/30 11:07:07;;;;;;;7.78;2.97;;;;;;;22.90;52.07;100596.59;5051444;28;20465;-78
2023/06/30 11:09:59;;;;;;;6.85;3.05;;;;;;;23.58;51.87;100584.19;5052008;28;20416;-76
2023/06/30 11:12:27;;;;;;;7.77;3.10;;;;;;;24.18;51.96;100589.63;5052556;28;20062;-78
2023/06/30 11:14:56;;;;;;;5.68;3.17;;;;;;;23.77;50.40;100577.53;5052973;28;20543;-80
2023/06/30 11:17:23;;;;;;;3.30;2.38;;;;;;;23.95;50.83;100576.47;5051259;28;20416;-77
2023/06/30 11:20:09;;;;;;;8.00;3.45;;;;;;;23.91;51.21;100592.19;5052195;28;20072;-78